Time;durP1;ratioP1;P1;durP2;ratioP2;P2;SDS_P1;SDS_P2;PMS_P1;PMS_P2;Temp;Humidity;BMP_temperature;BMP_pressure;BME280_temperature;BME280_humidity;BME280_pressure;Samples;Min_cycle;Max_cycle;Signal;HPM_P1;HPM_P2
2021/04/04 00:01:19;;;;;;;8.57;1.20;;;-1.50;99.90;;;;;;5043511;28;20236;-68
2021/04/04 00:03:45;;;;;;;5.03;1.38;;;-1.50;99.90;;;;;;5019657;28;20952;-69
2021/04/04 00:06:11;;;;;;;3.25;1.33;;;-1.60;99.90;;;;;;5032895;28;20190;-68
2021/04/04 00:08:36;;;;;;;4.35;1.40;;;-1.60;99.90;;;;;;5036088;28;20198;-69
2021/04/04 00:11:04;;;;;;;3.17;1.25;;;-1.60;99.90;;;;;;5035185;28;20292;-68
2021/04/04 00:13:29;;;;;;;8.90;1.40;;;-1.70;99.90;;;;;;5035977;28;20200;-68
2021/04/04 00:15:55;;;;;;;2.85;1.50;;;-1.70;99.90;;;;;;5039365;28;20197;-70
2021/04/04 00:18:21;;;;;;;4.25;1.50;;;-1.70;99.90;;;;;;5039950;28;20649;-68
2021/04/04 00:20:46;;;;;;;3.78;1.60;;;-1.80;99.90;;;;;;5044404;28;20579;-70
2021/04/04 00:23:12;;;;;;;10.20;1.40;;;-1.80;99.90;;;;;;5043547;28;20200;-70
2021/04/04 00:25:38;;;;;;;4.55;1.20;;;-1.80;99.90;;;;;;5036549;28;20193;-68
2021/04/04 00:28:04;;;;;;;6.88;1.50;;;-1.70;99.90;;;;;;5029578;28;20199;-68
2021/04/04 00:30:30;;;;;;;2.03;1.20;;;-1.80;99.90;;;;;;5039019;28;20200;-68
2021/04/04 00:32:56;;;;;;;9.85;1.60;;;-1.70;99.90;;;;;;5037394;28;20197;-68
2021/04/04 00:35:22;;;;;;;5.57;1.80;;;-1.80;99.90;;;;;;5033709;28;20197;-68
2021/04/04 00:37:52;;;;;;;2.42;1.20;;;-1.80;99.90;;;;;;5042797;28;20193;-68
2021/04/04 00:40:37;;;;;;;3.90;1.65;;;-1.90;99.90;;;;;;5039103;28;20198;-70
2021/04/04 00:43:03;;;;;;;2.00;1.17;;;-1.90;99.90;;;;;;5036686;28;20198;-70
2021/04/04 00:45:37;;;;;;;2.92;1.60;;;-2.00;99.90;;;;;;5041475;28;20256;-70
2021/04/04 00:48:05;;;;;;;3.35;1.63;;;-2.00;99.90;;;;;;5037595;28;20273;-70
2021/04/04 00:50:34;;;;;;;7.40;1.50;;;-2.00;99.90;;;;;;5034740;28;20638;-71
2021/04/04 00:53:00;;;;;;;8.13;1.63;;;-1.90;99.90;;;;;;5030779;28;20566;-71
2021/04/04 00:55:27;;;;;;;10.77;1.50;;;-1.90;99.90;;;;;;5037974;28;20208;-71
2021/04/04 00:57:53;;;;;;;3.17;1.33;;;-1.90;99.90;;;;;;5033130;28;20194;-70
2021/04/04 01:00:24;;;;;;;2.55;1.58;;;-1.90;99.90;;;;;;5036025;28;20540;-72
2021/04/04 01:02:50;;;;;;;5.13;1.58;;;-1.90;99.90;;;;;;5023588;23;20235;-72
2021/04/04 01:05:22;;;;;;;4.45;1.40;;;-2.00;99.90;;;;;;5039174;28;20198;-73
2021/04/04 01:07:49;;;;;;;3.33;1.65;;;-2.00;99.90;;;;;;5042050;28;20600;-72
2021/04/04 01:10:15;;;;;;;7.18;1.65;;;-2.00;99.90;;;;;;5026077;28;20300;-72
2021/04/04 01:13:04;;;;;;;5.03;1.45;;;-2.10;99.90;;;;;;5044293;28;20212;-72
2021/04/04 01:15:36;;;;;;;5.35;1.60;;;-2.10;99.90;;;;;;5041360;28;20960;-73
2021/04/04 01:18:25;;;;;;;3.03;1.30;;;-2.10;99.90;;;;;;5043637;28;20193;-73
2021/04/04 01:20:55;;;;;;;4.57;1.65;;;-2.10;99.90;;;;;;5025803;28;20198;-72
2021/04/04 01:23:50;;;;;;;6.13;1.60;;;-2.10;99.90;;;;;;5042962;28;20679;-73
2021/04/04 01:26:24;;;;;;;4.85;1.75;;;-2.10;99.90;;;;;;5026036;28;20204;-72
2021/04/04 01:28:51;;;;;;;4.35;1.55;;;-2.10;99.90;;;;;;5040343;28;20224;-72
2021/04/04 01:31:18;;;;;;;6.93;1.60;;;-2.20;99.90;;;;;;5045346;28;20196;-73
2021/04/04 01:33:46;;;;;;;5.95;1.60;;;-2.20;99.90;;;;;;5038619;28;20198;-73
2021/04/04 01:36:16;;;;;;;2.55;1.45;;;-2.30;99.90;;;;;;5045790;28;20204;-70
2021/04/04 01:38:43;;;;;;;4.25;1.40;;;-2.40;99.90;;;;;;5037620;28;20666;-72
2021/04/04 01:41:31;;;;;;;2.80;1.35;;;-2.30;99.90;;;;;;5031633;28;20197;-72
2021/04/04 01:44:01;;;;;;;6.22;1.50;;;-2.40;99.90;;;;;;5042426;28;20629;-71
2021/04/04 01:46:28;;;;;;;7.13;1.90;;;-2.40;99.90;;;;;;5039667;28;20228;-70
2021/04/04 01:48:55;;;;;;;9.18;1.50;;;-2.40;99.90;;;;;;5040066;28;20619;-71
2021/04/04 01:51:23;;;;;;;4.28;1.40;;;-2.40;99.90;;;;;;5041085;28;20198;-72
2021/04/04 01:53:51;;;;;;;5.90;1.33;;;-2.40;99.90;;;;;;5041419;28;20761;-73
2021/04/04 01:56:17;;;;;;;8.25;1.60;;;-2.40;99.90;;;;;;5043130;28;20228;-73
2021/04/04 01:58:44;;;;;;;6.25;1.58;;;-2.40;99.90;;;;;;5041611;28;21032;-73
2021/04/04 02:01:11;;;;;;;7.90;1.30;;;-2.40;99.90;;;;;;5025457;28;20193;-72
2021/04/04 02:03:38;;;;;;;3.00;1.58;;;-2.40;99.90;;;;;;5038500;28;20225;-72
2021/04/04 02:06:04;;;;;;;3.83;1.63;;;-2.40;99.90;;;;;;5040133;28;20773;-72
2021/04/04 02:08:31;;;;;;;8.05;1.60;;;-2.40;99.90;;;;;;5042929;28;20217;-72
2021/04/04 02:10:57;;;;;;;7.63;1.67;;;-2.40;99.90;;;;;;5045032;28;20193;-72
2021/04/04 02:13:26;;;;;;;2.42;1.38;;;-2.30;99.90;;;;;;5039096;28;20688;-72
2021/04/04 02:15:57;;;;;;;11.45;2.13;;;-2.40;99.90;;;;;;5040320;28;20226;-73
2021/04/04 02:18:24;;;;;;;10.75;1.80;;;-2.40;99.90;;;;;;5041811;28;20209;-70
2021/04/04 02:20:53;;;;;;;4.55;1.65;;;-2.40;99.90;;;;;;5039756;28;20219;-70
2021/04/04 02:23:20;;;;;;;6.78;1.65;;;-2.50;99.90;;;;;;5028756;28;20200;-72
2021/04/04 02:25:45;;;;;;;3.03;1.30;;;-2.50;99.90;;;;;;5039943;28;20280;-73
2021/04/04 02:28:12;;;;;;;5.70;1.60;;;-2.50;99.90;;;;;;5018853;28;20280;-73
2021/04/04 02:30:37;;;;;;;6.82;1.77;;;-2.50;99.90;;;;;;5041391;28;20193;-72
2021/04/04 02:33:12;;;;;;;10.07;1.63;;;-2.50;99.90;;;;;;5037537;28;20194;-72
2021/04/04 02:35:40;;;;;;;3.88;1.50;;;-2.50;99.90;;;;;;5042914;28;20193;-71
2021/04/04 02:38:21;;;;;;;9.27;1.70;;;-2.50;99.90;;;;;;5019346;28;20182;-72
2021/04/04 02:40:48;;;;;;;5.57;1.50;;;-2.50;99.90;;;;;;5041293;28;20201;-72
2021/04/04 02:43:23;;;;;;;10.23;1.67;;;-2.60;99.90;;;;;;5039652;28;20201;-72
2021/04/04 02:45:51;;;;;;;6.80;1.83;;;-2.60;99.90;;;;;;5033856;28;20217;-72
2021/04/04 02:48:19;;;;;;;3.63;1.92;;;-2.70;99.90;;;;;;5034409;28;20205;-72
2021/04/04 02:50:50;;;;;;;7.90;1.83;;;-2.70;99.90;;;;;;5040263;28;20210;-72
2021/04/04 02:53:17;;;;;;;9.13;1.63;;;-2.70;99.90;;;;;;5035646;28;20221;-72
2021/04/04 02:55:46;;;;;;;4.57;1.73;;;-2.60;99.90;;;;;;5035131;28;20221;-72
2021/04/04 02:58:12;;;;;;;5.22;1.67;;;-2.70;99.90;;;;;;5041392;28;20213;-72
2021/04/04 03:00:40;;;;;;;5.47;1.83;;;-2.60;99.90;;;;;;5032866;28;20233;-72
2021/04/04 03:03:08;;;;;;;6.53;1.70;;;-2.60;99.90;;;;;;5024773;28;20247;-72
2021/04/04 03:05:35;;;;;;;6.30;1.50;;;-2.60;99.90;;;;;;5041619;28;20202;-72
2021/04/04 03:08:05;;;;;;;14.02;1.80;;;-2.70;99.90;;;;;;5043590;28;20730;-72
2021/04/04 03:10:32;;;;;;;8.68;1.70;;;-2.70;99.90;;;;;;5039345;28;20193;-72
2021/04/04 03:12:59;;;;;;;5.50;1.77;;;-2.60;99.90;;;;;;5041161;28;20201;-72
2021/04/04 03:15:27;;;;;;;15.68;1.77;;;-2.60;99.90;;;;;;5042508;28;20186;-73
2021/04/04 03:17:55;;;;;;;2.88;1.55;;;-2.50;99.90;;;;;;5037621;28;20201;-73
2021/04/04 03:20:22;;;;;;;3.05;1.80;;;-2.50;99.90;;;;;;5037487;28;20662;-72
2021/04/04 03:22:49;;;;;;;4.13;1.63;;;-2.50;99.90;;;;;;5037758;28;20209;-73
2021/04/04 03:25:17;;;;;;;6.53;1.60;;;-2.60;99.90;;;;;;5041354;28;20201;-72
2021/04/04 03:27:44;;;;;;;6.65;1.67;;;-2.60;99.90;;;;;;5043926;28;20236;-72
2021/04/04 03:32:58;;;;;;;6.35;1.83;;;-2.60;99.90;;;;;;5043167;28;20205;-73
2021/04/04 03:35:25;;;;;;;6.00;1.70;;;-2.70;99.90;;;;;;5038717;28;20205;-72
2021/04/04 03:37:52;;;;;;;3.17;1.60;;;-2.80;99.90;;;;;;5044390;28;20193;-72
2021/04/04 03:40:18;;;;;;;7.70;2.03;;;-2.70;99.90;;;;;;5040383;28;20645;-70
2021/04/04 03:42:45;;;;;;;5.60;1.80;;;-2.70;99.90;;;;;;5041842;28;20291;-70
2021/04/04 03:45:15;;;;;;;4.97;1.65;;;-2.80;99.90;;;;;;5041611;28;20194;-71
2021/04/04 03:47:42;;;;;;;10.60;1.50;;;-2.90;99.90;;;;;;5040157;28;20202;-70
2021/04/04 03:50:09;;;;;;;7.35;1.70;;;-2.90;99.90;;;;;;5035263;28;20623;-73
2021/04/04 03:52:39;;;;;;;3.67;1.80;;;-2.90;99.90;;;;;;5037659;28;20194;-73
2021/04/04 03:55:07;;;;;;;6.75;1.90;;;-2.90;99.90;;;;;;5039554;28;20276;-74
2021/04/04 03:57:37;;;;;;;10.10;1.52;;;-2.90;99.90;;;;;;5040887;28;20232;-73
2021/04/04 04:00:07;;;;;;;5.72;1.63;;;-2.90;99.90;;;;;;5038294;28;20220;-73
2021/04/04 04:02:35;;;;;;;11.35;1.95;;;-2.90;99.90;;;;;;5036897;28;20241;-72
2021/04/04 04:05:03;;;;;;;5.97;2.03;;;-2.90;99.90;;;;;;5026919;28;20255;-72
2021/04/04 04:07:31;;;;;;;4.88;1.85;;;-3.00;99.90;;;;;;5036556;28;20210;-72
2021/04/04 04:10:02;;;;;;;3.38;1.65;;;-2.90;99.90;;;;;;5024092;28;20229;-73
2021/04/04 04:12:29;;;;;;;6.45;2.00;;;-2.80;99.90;;;;;;5043500;28;20247;-74
2021/04/04 04:14:56;;;;;;;5.35;1.90;;;-2.70;99.90;;;;;;5045106;28;20238;-72
2021/04/04 04:17:24;;;;;;;5.53;1.77;;;-2.70;99.90;;;;;;5020245;28;20286;-73
2021/04/04 04:19:50;;;;;;;11.38;2.05;;;-2.60;99.90;;;;;;5045232;28;20201;-72
2021/04/04 04:22:16;;;;;;;7.22;1.90;;;-2.70;99.90;;;;;;5038475;28;20213;-72
2021/04/04 04:24:45;;;;;;;6.45;1.80;;;-2.70;99.90;;;;;;5044932;28;20273;-73
2021/04/04 04:27:12;;;;;;;12.70;2.10;;;-2.80;99.90;;;;;;5045210;28;20204;-72
2021/04/04 04:29:38;;;;;;;13.70;2.20;;;-2.70;99.90;;;;;;5048110;28;20190;-73
2021/04/04 04:32:05;;;;;;;5.80;2.20;;;-2.60;99.90;;;;;;5026767;28;20963;-73
2021/04/04 04:34:32;;;;;;;12.75;1.83;;;-2.60;99.90;;;;;;5044996;28;20211;-72
2021/04/04 04:36:58;;;;;;;10.18;1.95;;;-2.60;99.90;;;;;;5041173;28;20649;-73
2021/04/04 04:39:25;;;;;;;5.65;2.13;;;-2.60;99.90;;;;;;5046777;28;20200;-73
2021/04/04 04:41:52;;;;;;;9.73;1.77;;;-2.60;99.90;;;;;;5043654;28;20209;-73
2021/04/04 04:44:25;;;;;;;5.68;2.15;;;-2.50;99.90;;;;;;5044953;28;20207;-72
2021/04/04 04:46:51;;;;;;;9.30;2.00;;;-2.50;99.90;;;;;;5041196;28;20194;-73
2021/04/04 04:49:18;;;;;;;4.57;1.80;;;-2.50;99.90;;;;;;5025170;28;20275;-72
2021/04/04 04:51:48;;;;;;;7.60;2.20;;;-2.50;99.90;;;;;;5041164;28;20208;-72
2021/04/04 04:54:14;;;;;;;7.22;2.10;;;-2.50;99.90;;;;;;5037434;28;20194;-72
2021/04/04 04:56:41;;;;;;;7.25;1.98;;;-2.50;99.90;;;;;;5045579;28;20202;-71
2021/04/04 04:59:08;;;;;;;5.88;2.10;;;-2.50;99.90;;;;;;5047394;28;20197;-70
2021/04/04 05:01:41;;;;;;;10.38;2.00;;;-2.40;99.90;;;;;;5026162;28;20207;-71
2021/04/04 05:04:07;;;;;;;14.05;2.42;;;-2.10;99.90;;;;;;5044359;28;20221;-71
2021/04/04 05:06:33;;;;;;;4.20;1.73;;;-2.00;99.90;;;;;;5046956;28;21052;-71
2021/04/04 05:09:00;;;;;;;5.50;1.83;;;-1.80;99.90;;;;;;5046012;28;20194;-71
2021/04/04 05:11:27;;;;;;;8.23;2.13;;;-1.70;99.90;;;;;;5044297;28;20197;-72
2021/04/04 05:13:53;;;;;;;6.75;2.10;;;-1.60;99.90;;;;;;5043961;28;20209;-72
2021/04/04 05:16:19;;;;;;;8.13;2.30;;;-1.40;99.90;;;;;;5042701;28;20298;-72
2021/04/04 05:18:48;;;;;;;10.32;2.53;;;-1.20;99.90;;;;;;5013173;28;20303;-71
2021/04/04 05:21:26;;;;;;;24.23;2.40;;;-1.00;99.90;;;;;;5042045;28;20518;-73
2021/04/04 05:24:00;;;;;;;9.15;2.55;;;-0.70;99.90;;;;;;5042841;28;20682;-71
2021/04/04 05:26:28;;;;;;;16.73;2.80;;;-0.50;99.90;;;;;;5043806;28;20296;-73
2021/04/04 05:28:55;;;;;;;10.88;2.60;;;-0.30;99.90;;;;;;5045213;28;20194;-71
2021/04/04 05:31:21;;;;;;;10.00;2.60;;;-0.10;99.90;;;;;;5048023;28;20212;-71
2021/04/04 05:33:47;;;;;;;8.52;2.67;;;0.10;99.90;;;;;;5036946;28;20208;-72
2021/04/04 05:36:13;;;;;;;9.02;2.80;;;0.30;99.90;;;;;;5037938;28;20198;-71
2021/04/04 05:38:39;;;;;;;7.97;2.60;;;0.40;99.90;;;;;;5041657;28;20229;-71
2021/04/04 05:41:06;;;;;;;8.70;2.53;;;0.50;99.90;;;;;;5041147;28;20248;-72
2021/04/04 05:43:40;;;;;;;10.98;2.30;;;0.50;99.90;;;;;;5041015;28;20756;-71
2021/04/04 05:46:15;;;;;;;13.82;3.15;;;0.60;99.90;;;;;;5043810;28;20192;-71
2021/04/04 05:49:02;;;;;;;10.38;2.88;;;0.60;99.90;;;;;;5025027;28;20671;-71
2021/04/04 05:51:46;;;;;;;7.18;2.60;;;0.70;99.90;;;;;;5038195;28;20189;-72
2021/04/04 05:54:37;;;;;;;9.45;3.17;;;0.70;99.90;;;;;;5042494;28;20197;-71
2021/04/04 05:57:19;;;;;;;10.55;2.78;;;0.90;99.90;;;;;;5042486;28;20197;-71
2021/04/04 05:59:47;;;;;;;14.57;2.83;;;1.00;99.90;;;;;;5040547;28;20202;-72
2021/04/04 06:02:50;;;;;;;8.98;2.83;;;1.10;99.90;;;;;;5030318;28;20259;-72
2021/04/04 06:05:53;;;;;;;10.80;2.72;;;1.20;99.90;;;;;;5039082;28;20199;-71
2021/04/04 06:08:40;;;;;;;8.05;2.75;;;1.20;99.90;;;;;;5038981;28;20197;-72
2021/04/04 06:11:12;;;;;;;9.57;2.25;;;1.30;99.90;;;;;;5040647;28;20197;-72
2021/04/04 06:14:04;;;;;;;12.82;2.90;;;1.40;99.90;;;;;;5037788;28;20212;-72
2021/04/04 06:16:51;;;;;;;13.45;2.38;;;1.40;99.90;;;;;;5039705;28;20200;-72
2021/04/04 06:19:44;;;;;;;15.48;2.60;;;1.50;99.90;;;;;;5034645;28;20611;-72
2021/04/04 06:22:24;;;;;;;8.88;2.83;;;1.60;99.90;;;;;;5042175;28;20213;-72
2021/04/04 06:24:57;;;;;;;9.32;2.45;;;1.70;99.90;;;;;;5042749;28;20238;-71
2021/04/04 06:27:37;;;;;;;7.18;2.53;;;1.80;99.90;;;;;;5043431;28;20855;-72
2021/04/04 06:30:47;;;;;;;3.90;2.17;;;1.90;99.90;;;;;;5044239;28;20284;-71
2021/04/04 06:33:27;;;;;;;18.80;3.17;;;2.00;99.90;;;;;;5041911;28;20196;-72
2021/04/04 06:36:17;;;;;;;13.40;2.80;;;2.10;99.90;;;;;;5046162;28;20228;-71
2021/04/04 06:39:12;;;;;;;8.75;2.60;;;2.20;99.90;;;;;;5025395;28;21660;-73
2021/04/04 06:41:51;;;;;;;13.10;3.17;;;2.40;99.90;;;;;;5036294;28;20240;-72
2021/04/04 06:44:51;;;;;;;6.50;2.65;;;2.60;99.90;;;;;;5039602;28;20708;-72
2021/04/04 06:47:58;;;;;;;9.48;2.90;;;2.70;99.90;;;;;;5043970;28;20596;-72
2021/04/04 06:50:30;;;;;;;12.88;3.17;;;3.00;99.90;;;;;;5036978;28;20721;-71
2021/04/04 06:53:17;;;;;;;8.70;2.90;;;3.20;99.90;;;;;;5037432;28;20220;-71
2021/04/04 06:55:43;;;;;;;13.30;2.97;;;3.30;99.90;;;;;;5039870;28;20264;-71
2021/04/04 06:59:10;;;;;;;20.42;3.70;;;3.40;99.90;;;;;;5037862;28;20205;-72
2021/04/04 07:01:59;;;;;;;15.50;3.10;;;3.50;99.90;;;;;;4965422;28;20221;-72
2021/04/04 07:04:41;;;;;;;8.82;3.00;;;3.60;99.90;;;;;;5024561;28;20233;-71
2021/04/04 07:07:44;;;;;;;12.70;2.88;;;3.60;99.90;;;;;;5022078;28;20201;-73
2021/04/04 07:10:47;;;;;;;11.68;2.97;;;3.50;99.90;;;;;;5043041;28;20639;-72
2021/04/04 07:13:37;;;;;;;12.43;3.08;;;3.40;99.90;;;;;;5040422;28;20200;-72
2021/04/04 07:16:32;;;;;;;8.48;3.05;;;3.50;99.90;;;;;;4995149;28;20346;-72
2021/04/04 07:19:04;;;;;;;16.20;3.53;;;3.50;99.90;;;;;;5037090;28;20276;-72
2021/04/04 07:21:54;;;;;;;10.63;2.95;;;3.50;99.90;;;;;;5044170;28;20200;-71
2021/04/04 07:24:57;;;;;;;14.68;3.58;;;3.60;99.90;;;;;;5044373;28;20200;-72
2021/04/04 07:27:34;;;;;;;6.63;2.92;;;3.70;99.90;;;;;;5035690;28;20189;-71
2021/04/04 07:30:33;;;;;;;11.73;3.28;;;3.70;99.90;;;;;;5038134;28;20563;-71
2021/04/04 07:33:08;;;;;;;12.38;3.47;;;3.80;99.90;;;;;;5032137;28;20194;-73
2021/04/04 07:35:50;;;;;;;10.02;3.10;;;4.00;99.90;;;;;;5037655;28;20756;-72
2021/04/04 07:38:45;;;;;;;9.43;3.25;;;4.10;99.90;;;;;;5041164;28;20193;-72
2021/04/04 07:41:38;;;;;;;7.75;2.92;;;4.20;99.90;;;;;;5037772;28;20208;-72
2021/04/04 07:44:41;;;;;;;10.93;3.28;;;4.40;99.90;;;;;;5043109;28;20200;-72
2021/04/04 07:47:24;;;;;;;12.90;3.38;;;4.50;99.90;;;;;;5044164;28;20695;-72
2021/04/04 07:50:03;;;;;;;13.00;3.67;;;4.50;99.90;;;;;;5042856;28;20632;-72
2021/04/04 07:52:33;;;;;;;9.85;3.28;;;4.60;99.90;;;;;;5042497;28;20200;-72
2021/04/04 07:54:59;;;;;;;12.82;3.50;;;4.70;99.90;;;;;;5043527;28;20204;-72
2021/04/04 07:57:35;;;;;;;13.93;3.35;;;4.90;99.90;;;;;;5043300;28;20288;-71
2021/04/04 08:00:08;;;;;;;11.90;3.50;;;5.10;99.90;;;;;;5042479;28;20205;-72
2021/04/04 08:02:47;;;;;;;14.73;3.10;;;5.10;99.90;;;;;;5022585;28;20595;-72
2021/04/04 08:05:15;;;;;;;15.45;3.17;;;5.10;99.90;;;;;;5041599;28;20215;-72
2021/04/04 08:07:59;;;;;;;10.60;3.40;;;5.00;99.90;;;;;;5024293;28;20541;-72
2021/04/04 08:10:36;;;;;;;13.73;3.58;;;5.10;99.90;;;;;;5020748;28;20208;-72
2021/04/04 08:13:38;;;;;;;14.43;3.20;;;5.00;99.90;;;;;;5021893;28;20198;-72
2021/04/04 08:16:19;;;;;;;12.27;3.65;;;5.10;99.90;;;;;;5041708;28;20205;-72
2021/04/04 08:18:46;;;;;;;12.80;3.22;;;5.20;99.90;;;;;;5040135;28;20334;-72
2021/04/04 08:21:18;;;;;;;14.10;3.70;;;5.20;99.90;;;;;;5041966;28;20244;-72
2021/04/04 08:23:53;;;;;;;8.55;3.67;;;5.30;99.90;;;;;;5039850;28;20670;-72
2021/04/04 08:26:32;;;;;;;12.75;4.60;;;5.40;99.90;;;;;;5042878;28;20699;-72
2021/04/04 08:29:13;;;;;;;14.10;3.65;;;5.50;99.90;;;;;;5039927;28;20205;-70
2021/04/04 08:31:48;;;;;;;12.02;3.00;;;5.80;99.90;;;;;;5041223;28;20220;-73
2021/04/04 08:34:28;;;;;;;11.70;3.45;;;6.10;99.90;;;;;;5042423;28;20251;-72
2021/04/04 08:37:04;;;;;;;9.75;3.05;;;6.20;99.90;;;;;;5043074;28;20203;-72
2021/04/04 08:39:33;;;;;;;14.45;3.35;;;6.50;99.90;;;;;;5039475;28;20272;-70
2021/04/04 08:42:03;;;;;;;14.60;3.45;;;7.00;99.90;;;;;;5035665;28;20221;-72
2021/04/04 08:44:34;;;;;;;9.50;3.67;;;7.30;99.90;;;;;;5043514;28;20225;-72
2021/04/04 08:47:37;;;;;;;13.00;3.58;;;7.60;99.90;;;;;;5041306;28;20563;-72
2021/04/04 08:50:10;;;;;;;12.20;3.67;;;7.80;99.90;;;;;;5038306;28;20718;-72
2021/04/04 08:52:43;;;;;;;10.10;3.20;;;7.90;99.90;;;;;;5037317;28;20337;-73
2021/04/04 08:55:11;;;;;;;11.85;3.92;;;8.00;99.90;;;;;;5034316;28;20710;-72
2021/04/04 08:57:43;;;;;;;15.98;3.78;;;8.10;99.90;;;;;;5043812;28;20193;-72
2021/04/04 09:00:11;;;;;;;16.70;3.45;;;8.10;99.90;;;;;;5039988;28;20201;-72
2021/04/04 09:02:50;;;;;;;11.40;3.28;;;7.90;99.90;;;;;;5037831;28;20225;-72
2021/04/04 09:05:22;;;;;;;11.38;3.47;;;7.70;99.90;;;;;;5039256;28;20275;-72
2021/04/04 09:07:48;;;;;;;9.73;3.15;;;7.60;99.90;;;;;;5041566;28;20559;-73
2021/04/04 09:10:16;;;;;;;9.20;3.22;;;8.00;99.90;;;;;;5034690;28;20193;-73
2021/04/04 09:12:44;;;;;;;9.20;3.20;;;8.40;99.90;;;;;;5041292;28;20197;-73
2021/04/04 09:15:12;;;;;;;14.70;3.53;;;8.60;99.90;;;;;;5042719;28;20201;-73
2021/04/04 09:17:47;;;;;;;10.93;3.53;;;8.70;99.90;;;;;;5032527;28;20201;-73
2021/04/04 09:20:13;;;;;;;14.23;3.75;;;9.00;99.90;;;;;;5038615;28;20427;-72
2021/04/04 09:22:47;;;;;;;9.23;3.17;;;9.30;99.90;;;;;;5039225;28;20669;-73
2021/04/04 09:25:15;;;;;;;11.57;3.72;;;9.30;99.90;;;;;;5037406;28;20566;-73
2021/04/04 09:27:42;;;;;;;9.68;3.38;;;9.30;99.90;;;;;;5041644;28;20786;-73
2021/04/04 09:30:33;;;;;;;15.32;3.75;;;9.30;99.90;;;;;;5036856;28;20190;-72
2021/04/04 09:33:09;;;;;;;9.23;3.30;;;9.50;99.90;;;;;;5034320;28;20248;-73
2021/04/04 09:35:38;;;;;;;9.18;3.40;;;9.50;99.90;;;;;;5040556;28;20565;-73
2021/04/04 09:38:07;;;;;;;8.20;2.80;;;9.70;99.90;;;;;;5034770;28;20198;-72
2021/04/04 09:40:34;;;;;;;12.18;3.20;;;9.90;99.90;;;;;;5036949;28;20605;-73
2021/04/04 09:43:15;;;;;;;8.77;2.83;;;9.90;99.90;;;;;;5042171;28;20241;-73
2021/04/04 09:45:41;;;;;;;7.47;2.85;;;10.40;99.90;;;;;;5043387;28;20880;-73
2021/04/04 09:48:24;;;;;;;7.57;2.58;;;10.50;99.90;;;;;;5040464;28;20377;-72
2021/04/04 09:51:15;;;;;;;14.32;3.20;;;10.60;99.90;;;;;;5031617;28;20353;-73
2021/04/04 09:53:43;;;;;;;9.75;3.30;;;10.80;99.90;;;;;;5040635;28;20201;-73
2021/04/04 09:56:29;;;;;;;12.27;3.15;;;11.00;99.90;;;;;;5040376;28;20275;-73
2021/04/04 09:58:55;;;;;;;9.68;2.60;;;11.20;99.90;;;;;;5040638;28;20271;-73
2021/04/04 10:01:23;;;;;;;4.85;2.35;;;11.20;99.90;;;;;;5040862;28;20427;-73
2021/04/04 10:04:00;;;;;;;10.57;2.83;;;11.50;99.90;;;;;;5039603;28;20247;-73
2021/04/04 10:06:27;;;;;;;8.90;2.65;;;11.40;99.90;;;;;;5042131;28;20288;-73
2021/04/04 10:08:54;;;;;;;6.18;2.50;;;11.60;99.90;;;;;;5039649;28;20190;-73
2021/04/04 10:11:21;;;;;;;10.20;2.58;;;12.00;99.90;;;;;;5040445;28;20197;-73
2021/04/04 10:13:47;;;;;;;10.27;2.70;;;12.20;99.90;;;;;;5036295;28;20585;-73
2021/04/04 10:16:21;;;;;;;11.38;2.80;;;12.40;99.90;;;;;;5039490;28;20198;-73
2021/04/04 10:19:00;;;;;;;8.38;2.90;;;12.60;99.90;;;;;;5035218;28;20568;-73
2021/04/04 10:21:25;;;;;;;7.82;2.78;;;12.70;99.90;;;;;;5039900;28;20220;-74
2021/04/04 10:23:51;;;;;;;6.25;2.47;;;12.30;99.90;;;;;;5028051;28;20205;-74
2021/04/04 10:26:20;;;;;;;11.57;3.30;;;12.10;99.90;;;;;;5033044;28;20740;-74
2021/04/04 10:29:01;;;;;;;7.30;2.67;;;12.50;99.90;;;;;;5039946;28;20197;-73
2021/04/04 10:31:45;;;;;;;10.02;2.92;;;12.40;99.90;;;;;;5038482;28;20205;-74
2021/04/04 10:34:11;;;;;;;8.55;3.10;;;11.90;99.90;;;;;;5038303;28;20208;-73
2021/04/04 10:36:36;;;;;;;9.40;2.80;;;12.00;99.90;;;;;;5040196;28;20201;-74
2021/04/04 10:39:03;;;;;;;6.40;2.75;;;12.40;99.90;;;;;;5037572;28;20201;-74
2021/04/04 10:41:36;;;;;;;8.60;2.45;;;12.50;99.90;;;;;;5039410;28;20197;-73
2021/04/04 10:44:04;;;;;;;10.75;3.05;;;12.60;99.90;;;;;;5040886;28;20201;-73
2021/04/04 10:46:33;;;;;;;7.60;2.75;;;12.60;99.90;;;;;;5024607;28;20189;-74
2021/04/04 10:49:01;;;;;;;14.55;3.30;;;12.80;99.90;;;;;;5039669;28;20279;-73
2021/04/04 10:51:29;;;;;;;9.20;3.17;;;12.60;99.90;;;;;;5041068;28;20208;-73
2021/04/04 10:53:55;;;;;;;7.95;2.70;;;12.30;99.90;;;;;;5020168;28;20807;-74
2021/04/04 10:56:20;;;;;;;12.10;3.45;;;12.10;99.90;;;;;;5041604;28;20258;-74
2021/04/04 10:58:48;;;;;;;9.50;2.72;;;12.00;99.90;;;;;;5033522;28;20574;-74
2021/04/04 11:01:15;;;;;;;11.40;2.85;;;12.20;99.90;;;;;;5032753;28;20572;-74
2021/04/04 11:03:41;;;;;;;6.03;3.20;;;12.60;99.90;;;;;;5038759;28;20226;-73
2021/04/04 11:06:07;;;;;;;11.45;2.83;;;13.00;99.90;;;;;;5036651;28;20628;-73
2021/04/04 11:08:33;;;;;;;10.70;2.85;;;13.10;99.90;;;;;;5036912;28;20221;-73
2021/04/04 11:11:00;;;;;;;9.40;3.00;;;13.30;99.60;;;;;;5021906;28;20231;-73
2021/04/04 11:13:26;;;;;;;8.68;3.10;;;13.20;99.90;;;;;;5034212;28;20586;-73
2021/04/04 11:15:59;;;;;;;8.38;3.40;;;12.90;99.90;;;;;;5036174;28;20197;-74
2021/04/04 11:18:34;;;;;;;10.77;3.10;;;12.70;99.90;;;;;;5037619;28;20217;-73
2021/04/04 11:21:05;;;;;;;23.52;2.97;;;12.80;99.90;;;;;;5025612;28;20262;-74
2021/04/04 11:23:31;;;;;;;10.40;2.70;;;13.00;99.90;;;;;;5040879;28;20209;-74
2021/04/04 11:25:57;;;;;;;11.30;2.80;;;12.80;99.90;;;;;;5044884;28;20198;-73
2021/04/04 11:28:24;;;;;;;10.45;3.15;;;12.70;99.90;;;;;;5028958;28;20540;-74
2021/04/04 11:30:54;;;;;;;11.43;2.67;;;12.50;99.90;;;;;;5027363;28;20278;-75
2021/04/04 11:33:24;;;;;;;10.82;2.70;;;12.50;99.90;;;;;;5040622;28;20679;-74
2021/04/04 11:36:02;;;;;;;8.15;3.00;;;12.10;99.90;;;;;;5037668;28;20248;-74
2021/04/04 11:38:29;;;;;;;12.45;3.53;;;11.40;99.90;;;;;;5043481;28;20216;-74
2021/04/04 11:41:21;;;;;;;11.32;3.20;;;11.10;99.90;;;;;;5043946;28;20223;-74
2021/04/04 11:44:07;;;;;;;9.55;2.95;;;10.50;99.90;;;;;;5040303;28;20193;-74
2021/04/04 11:47:01;;;;;;;12.02;3.30;;;9.90;99.90;;;;;;5032297;28;20189;-74
2021/04/04 11:49:53;;;;;;;15.70;3.33;;;10.00;99.90;;;;;;5036421;28;20273;-74
2021/04/04 11:52:21;;;;;;;11.65;3.20;;;10.00;99.90;;;;;;5036402;28;20296;-74
2021/04/04 11:54:48;;;;;;;9.40;3.05;;;10.30;99.90;;;;;;5041090;28;20300;-74
2021/04/04 11:57:32;;;;;;;14.27;3.63;;;10.20;99.90;;;;;;5026649;28;20197;-73
2021/04/04 12:00:01;;;;;;;11.23;3.33;;;10.30;99.90;;;;;;5037013;28;20280;-74
2021/04/04 12:02:31;;;;;;;14.23;3.22;;;10.90;99.90;;;;;;5042209;28;20695;-73
2021/04/04 12:05:13;;;;;;;12.95;3.05;;;11.10;99.90;;;;;;5024136;28;20258;-74
2021/04/04 12:07:45;;;;;;;13.07;3.45;;;10.90;99.90;;;;;;5042743;28;20193;-70
2021/04/04 12:10:13;;;;;;;10.23;3.35;;;11.00;99.90;;;;;;5024648;28;20205;-70
2021/04/04 12:12:40;;;;;;;15.00;3.55;;;11.20;99.90;;;;;;5036854;28;20247;-70
2021/04/04 12:15:06;;;;;;;12.98;3.58;;;11.30;99.90;;;;;;5018237;28;20720;-70
2021/04/04 12:17:32;;;;;;;12.45;3.25;;;11.20;99.90;;;;;;5042647;28;20292;-69
2021/04/04 12:19:59;;;;;;;14.20;3.90;;;11.20;99.90;;;;;;5037285;28;20186;-70
2021/04/04 12:22:37;;;;;;;13.30;3.60;;;11.50;99.90;;;;;;5036434;28;20835;-71
2021/04/04 12:25:07;;;;;;;9.68;3.22;;;11.50;99.90;;;;;;5041134;28;20199;-70
2021/04/04 12:27:33;;;;;;;13.43;3.25;;;11.60;99.90;;;;;;5041557;28;20683;-70
2021/04/04 12:29:59;;;;;;;10.95;3.63;;;11.50;99.90;;;;;;5022783;28;20201;-69
2021/04/04 12:32:27;;;;;;;14.55;3.28;;;11.90;99.90;;;;;;5041989;28;20212;-70
2021/04/04 12:35:01;;;;;;;15.02;2.83;;;12.00;99.90;;;;;;5039763;28;20210;-71
2021/04/04 12:37:32;;;;;;;40.60;3.90;;;12.10;99.90;;;;;;5046165;28;20203;-69
2021/04/04 12:40:03;;;;;;;18.45;3.25;;;12.20;99.90;;;;;;5038097;28;20330;-69
2021/04/04 12:42:32;;;;;;;10.77;3.10;;;11.70;99.90;;;;;;5041405;28;20216;-70
2021/04/04 12:45:02;;;;;;;11.75;3.10;;;11.80;99.90;;;;;;5041059;28;20197;-70
2021/04/04 12:47:28;;;;;;;8.93;3.05;;;12.00;99.90;;;;;;5035464;28;20205;-70
2021/04/04 12:49:59;;;;;;;15.38;3.40;;;11.80;99.90;;;;;;5042515;28;20197;-68
2021/04/04 12:52:38;;;;;;;12.35;3.20;;;11.60;99.90;;;;;;5039992;28;20289;-70
2021/04/04 12:55:22;;;;;;;12.57;3.25;;;11.70;99.90;;;;;;5041704;28;20288;-69
2021/04/04 12:57:59;;;;;;;16.88;3.55;;;11.60;99.90;;;;;;5042196;28;20209;-69
2021/04/04 13:00:31;;;;;;;15.05;3.45;;;11.40;99.90;;;;;;5039877;28;20209;-69
2021/04/04 13:03:01;;;;;;;11.60;3.33;;;11.30;99.90;;;;;;5040676;28;20228;-70
2021/04/04 13:05:52;;;;;;;11.18;3.30;;;11.50;99.90;;;;;;5039025;28;20246;-69
2021/04/04 13:08:30;;;;;;;11.38;3.25;;;11.60;99.90;;;;;;5044438;28;20693;-70
2021/04/04 13:11:16;;;;;;;10.30;3.58;;;11.90;99.90;;;;;;5019537;28;20288;-69
2021/04/04 13:13:45;;;;;;;14.88;3.30;;;11.90;99.90;;;;;;5038778;28;20691;-69
2021/04/04 13:16:16;;;;;;;16.63;3.38;;;12.10;99.90;;;;;;5025585;28;20205;-71
2021/04/04 13:18:47;;;;;;;10.85;3.33;;;12.10;99.90;;;;;;5034563;28;20205;-70